KBILKGPI

Guest
Details From KBIL - Billings Logan Intl
To KGPI - GLACIER PARK INTL
Flight Number -
Tags decoded
Created
Modified
Stats Distance 278 nm / 514 km
Max Altitude 0 ft / 0 m
Waypoints 2
Social Downloads 0
Likes 0
Share VATSIM

Download

Looking for another format? Having issues loading an existing format? Contact us
Advertisement - Login to hide

Notes

Requested: KBIL KGPI

Route

KBIL KGPI

ID Type Via Altitude Latitude Longitude Leg Dist Tot Dist Heading (true) Name
O KBIL APT - 0 ft / 0 m 45.80771˚ -108.54641˚ - 0 nm - Billings Logan Intl
O KGPI APT - 0 ft / 0 m 48.31172˚ -114.25512˚ 277 nm 277 nm 305° / 301° GLACIER PARK INTL

Altitude Profile

Advertisement - Login to hide

Weather


0- 5 10 15 20 25 30 35+ Temperature / ° C

Clouds and Precipitation
Forecast for 2017-12-12 00:00 UTC. Updated 10 minutes ago

Ground ~20,000 ft ~40,000 ft Winds

KBIL

Details ICAO KBIL (BIL)
Name Billings Logan Intl
Region United States
Timezone America/Denver (UTC-7.0)
Stats Elevation 3,652 ft / 1,113 m (AMSL)
Location 45.807706° -108.546410°
Runways 3
Magnetic Variation 10.693° E

METAR

KBIL 112053Z 00000KT 10SM SCT200 09/M09 A3042 RMK AO2 SLP313 T00891089 PNO $

Decode

TAF

KBIL 111727Z 1118/1218 26011KT P6SM SCT250 FM120400 24015KT P6SM SCT250

Decode

Departure Runways

ID Width Length Bearing (true) Bearing (mag) Surface Threshold Offset Overrun Length
07 75 ft / 23 m 5,486 ft / 1,672 m 83.96° 73.27° Asphalt 0 ft / 0 m 0 ft / 0 m
10L 150 ft / 46 m 10,493 ft / 3,198 m 111.77° 101.08° Asphalt 0 ft / 0 m 1,000 ft / 305 m
10R 75 ft / 23 m 3,792 ft / 1,156 m 111.71° 101.02° Asphalt 0 ft / 0 m 0 ft / 0 m
25 75 ft / 23 m 5,486 ft / 1,672 m 263.97° 253.28° Asphalt 0 ft / 0 m 0 ft / 0 m
28L 75 ft / 23 m 3,792 ft / 1,156 m 291.72° 281.03° Asphalt 0 ft / 0 m 0 ft / 0 m
28R 150 ft / 46 m 10,493 ft / 3,198 m 291.80° 281.11° Asphalt 0 ft / 0 m 1,000 ft / 305 m

KGPI

Details ICAO KGPI
Name GLACIER PARK INTL
Region United States
Timezone America/Denver (UTC-7.0)
Stats Elevation 2,977 ft / 907 m (AMSL)
Location 48.311718° -114.255121°
Runways 2
Magnetic Variation 13.632° E

METAR

KGPI 112055Z 00000KT 10SM OVC009 M04/M06 A3061 RMK AO2 SLP407 T10441061 58014

Decode

TAF

KGPI 111726Z 1118/1218 00000KT P6SM OVC009

Decode

Destination Runways

ID Width Length Bearing (true) Bearing (mag) Surface Threshold Offset Overrun Length
02 150 ft / 46 m 9,023 ft / 2,750 m 34.81° 21.18° Asphalt 0 ft / 0 m 0 ft / 0 m
12 75 ft / 23 m 3,507 ft / 1,069 m 136.32° 122.69° Asphalt 0 ft / 0 m 650 ft / 198 m
20 150 ft / 46 m 9,023 ft / 2,750 m 214.83° 201.20° Asphalt 0 ft / 0 m 171 ft / 52 m
30 75 ft / 23 m 3,507 ft / 1,069 m 316.32° 302.69° Asphalt 0 ft / 0 m 541 ft / 165 m

Approach Navaids

Runway Type Ident Frequency Range Bearing (true) Bearing (mag) Slope Elevation
02 Localiser IFCA 111.50 MHz 18 nm / 33 km 34.72° 21.09° - 2,978 ft / 908 m (AMSL)
02 Glidescope IFCA 111.50 MHz 10 nm / 19 km 34.75° 21.12° 3.00° 2,962 ft / 903 m (AMSL)

Popular Alternatives